Time;durP1;ratioP1;P1;durP2;ratioP2;P2;SDS_P1;SDS_P2;PMS_P1;PMS_P2;Temp;Humidity;BMP_temperature;BMP_pressure;BME280_temperature;BME280_humidity;BME280_pressure;Samples;Min_cycle;Max_cycle;Signal;HPM_P1;HPM_P2
2021/06/27 00:01:54;;;;;;;9.05;2.20;;;;;;;22.19;100.00;100750.84;4845031;29;20462;-76
2021/06/27 00:04:40;;;;;;;9.85;2.10;;;;;;;21.97;100.00;100740.69;4842862;29;20029;-76
2021/06/27 00:07:25;;;;;;;7.97;2.22;;;;;;;22.09;100.00;100737.25;4829910;29;20026;-76
2021/06/27 00:10:14;;;;;;;6.85;2.55;;;;;;;21.93;100.00;100740.97;4845282;29;20026;-76
2021/06/27 00:13:01;;;;;;;5.97;2.38;;;;;;;22.28;100.00;100747.59;4830768;29;20044;-76
2021/06/27 00:15:49;;;;;;;8.75;2.65;;;;;;;22.16;100.00;100754.59;4844170;29;20065;-76
2021/06/27 00:18:35;;;;;;;7.15;2.28;;;;;;;22.05;100.00;100758.88;4845164;29;20026;-76
2021/06/27 00:21:22;;;;;;;3.85;2.00;;;;;;;22.38;100.00;100770.91;4845358;29;20109;-76
2021/06/27 00:24:07;;;;;;;7.20;1.98;;;;;;;22.32;100.00;100763.31;4831231;29;20076;-76
2021/06/27 00:26:53;;;;;;;8.75;2.05;;;;;;;22.22;100.00;100767.53;4846051;29;20122;-75
2021/06/27 00:29:39;;;;;;;7.10;2.30;;;;;;;22.61;100.00;100762.28;4833856;29;20066;-75
2021/06/27 00:32:25;;;;;;;6.85;2.08;;;;;;;22.44;100.00;100765.19;4845983;29;20360;-75
2021/06/27 00:35:14;;;;;;;7.40;2.17;;;;;;;22.87;100.00;100766.75;4848263;29;20025;-75
2021/06/27 00:38:00;;;;;;;6.18;1.95;;;;;;;22.62;100.00;100771.16;4848155;29;20065;-75
2021/06/27 00:40:45;;;;;;;7.35;1.90;;;;;;;22.77;100.00;100768.34;4848576;29;20026;-75
2021/06/27 00:43:33;;;;;;;5.45;2.05;;;;;;;22.53;100.00;100769.97;4848154;29;20073;-75
2021/06/27 00:46:19;;;;;;;6.28;1.90;;;;;;;22.91;100.00;100780.78;4832615;29;20038;-75
2021/06/27 00:49:04;;;;;;;7.28;2.20;;;;;;;22.86;100.00;100782.88;4847945;29;20030;-75
2021/06/27 00:51:50;;;;;;;4.50;2.00;;;;;;;23.33;100.00;100776.06;4834701;29;20029;-75
2021/06/27 00:54:36;;;;;;;3.85;2.10;;;;;;;23.18;100.00;100782.44;4833303;29;20061;-75
2021/06/27 00:57:21;;;;;;;3.33;2.05;;;;;;;23.18;100.00;100786.91;4847955;29;20041;-75
2021/06/27 01:00:11;;;;;;;8.57;2.30;;;;;;;23.15;100.00;100796.00;4847655;29;20025;-75
2021/06/27 01:02:57;;;;;;;5.32;2.00;;;;;;;23.10;100.00;100790.09;4846258;29;20044;-75
2021/06/27 01:05:43;;;;;;;6.85;2.10;;;;;;;22.85;100.00;100787.38;4847487;29;20034;-75
2021/06/27 01:08:30;;;;;;;7.10;2.42;;;;;;;22.88;100.00;100786.31;4848222;29;20061;-75
2021/06/27 01:11:15;;;;;;;6.05;2.10;;;;;;;22.77;100.00;100795.06;4834493;29;20454;-75
2021/06/27 01:14:02;;;;;;;6.10;2.33;;;;;;;23.13;100.00;100802.41;4846061;29;20030;-75
2021/06/27 01:16:47;;;;;;;6.70;2.40;;;;;;;23.16;100.00;100799.53;4833442;29;20066;-75
2021/06/27 01:19:33;;;;;;;7.85;2.80;;;;;;;23.26;100.00;100812.19;4847288;29;20048;-75
2021/06/27 01:22:19;;;;;;;4.78;2.10;;;;;;;23.12;100.00;100816.75;4845311;29;20065;-75
2021/06/27 01:25:08;;;;;;;8.68;2.30;;;;;;;23.08;100.00;100821.41;4832077;29;20145;-75
2021/06/27 01:27:54;;;;;;;6.40;2.65;;;;;;;23.26;100.00;100830.06;4848002;29;20123;-75
2021/06/27 01:30:41;;;;;;;8.48;2.70;;;;;;;23.03;100.00;100838.75;4847240;29;20102;-75
2021/06/27 01:33:27;;;;;;;7.47;2.45;;;;;;;22.80;100.00;100844.75;4846129;29;20033;-75
2021/06/27 01:36:13;;;;;;;5.90;2.20;;;;;;;23.11;100.00;100850.63;4847363;29;20448;-75
2021/06/27 01:38:59;;;;;;;5.03;2.47;;;;;;;23.01;100.00;100841.53;4832543;29;20494;-75
2021/06/27 01:41:51;;;;;;;4.97;2.53;;;;;;;23.10;100.00;100843.56;4847484;29;20026;-75
2021/06/27 01:44:37;;;;;;;6.30;2.60;;;;;;;23.36;100.00;100856.06;4847293;29;20038;-75
2021/06/27 01:47:29;;;;;;;4.95;2.40;;;;;;;23.36;100.00;100860.56;4847288;29;20437;-75
2021/06/27 01:50:15;;;;;;;7.88;2.35;;;;;;;23.22;100.00;100861.50;4846832;29;20030;-75
2021/06/27 01:53:02;;;;;;;7.55;2.63;;;;;;;23.06;100.00;100867.91;4845153;29;20460;-75
2021/06/27 01:55:49;;;;;;;8.50;2.97;;;;;;;22.81;100.00;100886.53;4845134;29;20053;-75
2021/06/27 01:58:44;;;;;;;5.70;2.70;;;;;;;22.04;100.00;100887.94;4831383;29;20468;-75
2021/06/27 02:01:40;;;;;;;7.05;2.67;;;;;;;22.03;100.00;100900.41;4844267;29;20034;-75
2021/06/27 02:04:26;;;;;;;9.60;2.58;;;;;;;22.12;100.00;100907.88;4832864;29;20030;-75
2021/06/27 02:07:13;;;;;;;14.25;3.60;;;;;;;21.64;100.00;100916.16;4832574;29;20086;-75
2021/06/27 02:09:59;;;;;;;10.05;3.70;;;;;;;22.04;100.00;100917.28;4845461;29;20026;-75
2021/06/27 02:12:45;;;;;;;12.93;3.65;;;;;;;22.27;100.00;100920.25;4846596;29;20038;-75
2021/06/27 02:15:31;;;;;;;16.48;4.25;;;;;;;22.19;100.00;100919.03;4832371;29;20052;-76
2021/06/27 02:18:26;;;;;;;10.93;4.32;;;;;;;22.26;100.00;100907.84;4844523;29;20086;-76
2021/06/27 02:21:18;;;;;;;16.10;4.18;;;;;;;22.30;100.00;100905.88;4844345;29;20034;-75
2021/06/27 02:24:05;;;;;;;13.45;4.10;;;;;;;22.48;100.00;100902.94;4846335;29;20527;-76
2021/06/27 02:26:51;;;;;;;11.35;4.47;;;;;;;22.07;100.00;100906.44;4846804;29;20048;-75
2021/06/27 02:29:37;;;;;;;15.68;4.63;;;;;;;22.24;100.00;100907.09;4845155;29;20400;-75
2021/06/27 02:32:23;;;;;;;16.58;4.70;;;;;;;22.23;100.00;100899.19;4846992;29;20041;-75
2021/06/27 02:35:10;;;;;;;11.00;4.10;;;;;;;22.26;100.00;100905.19;4846670;29;20117;-76
2021/06/27 02:37:56;;;;;;;15.70;5.10;;;;;;;22.04;100.00;100906.59;4846238;29;20109;-76
2021/06/27 02:40:43;;;;;;;9.60;4.93;;;;;;;22.11;100.00;100900.78;4844201;29;20452;-75
2021/06/27 02:43:29;;;;;;;18.77;5.35;;;;;;;21.56;100.00;100897.06;4844283;29;20033;-75
2021/06/27 02:46:15;;;;;;;18.80;5.78;;;;;;;22.12;100.00;100891.84;4846369;29;20045;-75
2021/06/27 02:49:01;;;;;;;16.60;5.68;;;;;;;22.41;100.00;100895.34;4831098;29;20119;-75
2021/06/27 02:51:47;;;;;;;15.35;5.50;;;;;;;22.13;100.00;100898.91;4846070;29;20070;-76
2021/06/27 02:54:32;;;;;;;15.73;6.05;;;;;;;22.42;100.00;100907.78;4844933;29;20038;-75
2021/06/27 02:57:18;;;;;;;20.48;5.90;;;;;;;22.66;100.00;100901.75;4844512;29;20029;-75
2021/06/27 03:00:07;;;;;;;15.20;5.82;;;;;;;22.86;100.00;100900.44;4846239;29;20052;-75
2021/06/27 03:02:53;;;;;;;16.83;5.80;;;;;;;22.59;100.00;100903.06;4844389;29;20113;-75
2021/06/27 03:05:38;;;;;;;17.13;5.80;;;;;;;22.66;100.00;100900.88;4844402;29;20524;-75
2021/06/27 03:08:24;;;;;;;16.65;5.80;;;;;;;22.28;100.00;100900.63;4844561;29;20098;-75
2021/06/27 03:11:11;;;;;;;18.20;5.40;;;;;;;22.63;100.00;100888.56;4843329;29;20466;-75
2021/06/27 03:13:56;;;;;;;16.73;5.30;;;;;;;22.67;100.00;100892.75;4845618;29;20383;-76
2021/06/27 03:16:42;;;;;;;15.40;4.72;;;;;;;22.93;100.00;100885.72;4844532;29;20041;-75
2021/06/27 03:19:28;;;;;;;17.10;4.75;;;;;;;23.33;100.00;100885.72;4845536;29;20048;-75
2021/06/27 03:22:13;;;;;;;15.73;4.88;;;;;;;23.20;100.00;100884.78;4845745;29;20135;-76
2021/06/27 03:25:00;;;;;;;12.27;4.22;;;;;;;23.05;100.00;100868.88;4845297;29;20054;-75
2021/06/27 03:27:45;;;;;;;14.95;4.80;;;;;;;23.05;100.00;100869.75;4844378;29;20467;-76
2021/06/27 03:30:32;;;;;;;17.05;4.47;;;;;;;23.20;100.00;100881.28;4842608;29;20025;-75
2021/06/27 03:33:17;;;;;;;11.07;4.13;;;;;;;23.57;100.00;100884.97;4845666;29;20045;-76
2021/06/27 03:36:04;;;;;;;9.52;4.07;;;;;;;23.48;100.00;100878.47;4831568;29;20030;-76
2021/06/27 03:41:40;;;;;;;12.05;3.85;;;;;;;23.78;100.00;100883.53;4844098;29;20460;-76
2021/06/27 03:44:27;;;;;;;11.15;4.50;;;;;;;23.99;100.00;100900.81;4842961;29;20447;-76
2021/06/27 03:47:12;;;;;;;12.65;4.18;;;;;;;23.69;100.00;100897.53;4843158;29;20038;-76
2021/06/27 03:49:58;;;;;;;14.43;3.78;;;;;;;23.81;100.00;100900.22;4845239;29;20371;-76
2021/06/27 03:52:45;;;;;;;7.55;4.05;;;;;;;23.78;100.00;100903.09;4846042;29;20042;-76
2021/06/27 03:55:31;;;;;;;12.27;4.07;;;;;;;23.24;100.00;100905.00;4830647;29;20113;-76
2021/06/27 03:58:17;;;;;;;15.23;4.40;;;;;;;23.43;100.00;100902.81;4845449;29;20038;-76
2021/06/27 04:01:03;;;;;;;12.40;4.43;;;;;;;23.06;100.00;100897.31;4843558;29;20102;-76
2021/06/27 04:03:49;;;;;;;12.07;4.68;;;;;;;23.08;100.00;100900.78;4849325;29;20030;-76
2021/06/27 04:06:34;;;;;;;21.25;5.00;;;;;;;23.55;100.00;100894.94;4846298;29;20417;-76
2021/06/27 04:09:20;;;;;;;13.38;4.45;;;;;;;23.57;100.00;100901.03;4833829;29;20030;-75
2021/06/27 04:12:07;;;;;;;22.52;6.10;;;;;;;23.83;100.00;100884.06;4848665;29;20049;-76
2021/06/27 04:14:52;;;;;;;13.23;5.05;;;;;;;23.46;100.00;100879.53;4847788;29;20468;-76
2021/06/27 04:17:38;;;;;;;14.05;5.05;;;;;;;23.27;100.00;100875.41;4847589;29;20045;-76
2021/06/27 04:20:24;;;;;;;18.98;5.00;;;;;;;23.61;100.00;100867.75;4846929;29;20026;-76
2021/06/27 04:23:10;;;;;;;16.80;5.18;;;;;;;23.12;100.00;100855.00;4833765;29;20029;-76
2021/06/27 04:25:56;;;;;;;14.70;4.25;;;;;;;23.19;100.00;100847.47;4848447;29;20092;-76
2021/06/27 04:28:42;;;;;;;14.18;4.20;;;;;;;23.16;100.00;100839.63;4846886;29;20034;-76
2021/06/27 04:31:28;;;;;;;17.58;4.47;;;;;;;23.44;100.00;100834.16;4845630;29;20022;-76
2021/06/27 04:34:13;;;;;;;10.43;4.13;;;;;;;23.78;100.00;100822.81;4846972;29;20345;-76
2021/06/27 04:36:59;;;;;;;9.50;3.58;;;;;;;24.21;100.00;100810.81;4846678;29;20061;-76
2021/06/27 04:39:45;;;;;;;11.05;3.42;;;;;;;24.09;100.00;100817.06;4848640;29;20112;-76
2021/06/27 04:42:31;;;;;;;13.57;3.72;;;;;;;23.90;100.00;100803.22;4834063;29;20037;-76
2021/06/27 04:45:17;;;;;;;15.95;3.80;;;;;;;24.29;100.00;100805.78;4846921;29;20048;-76
2021/06/27 04:48:05;;;;;;;10.95;3.65;;;;;;;24.65;100.00;100813.81;4833123;29;20048;-76
2021/06/27 04:50:51;;;;;;;11.38;3.08;;;;;;;24.50;100.00;100832.78;4835045;29;20041;-76
2021/06/27 04:53:37;;;;;;;8.48;2.90;;;;;;;24.31;100.00;100835.13;4847760;29;20476;-76
2021/06/27 04:56:23;;;;;;;9.00;3.35;;;;;;;24.87;100.00;100853.31;4833732;29;20041;-76
2021/06/27 04:59:09;;;;;;;8.88;3.00;;;;;;;24.77;100.00;100858.47;4848516;29;20413;-76
2021/06/27 05:01:56;;;;;;;7.32;3.10;;;;;;;25.11;100.00;100868.41;4846184;29;20026;-76
2021/06/27 05:04:41;;;;;;;10.10;3.17;;;;;;;24.78;100.00;100870.03;4848412;29;20037;-76
2021/06/27 05:07:27;;;;;;;9.15;3.20;;;;;;;25.19;100.00;100890.13;4847889;29;20041;-76
2021/06/27 05:10:13;;;;;;;8.23;3.65;;;;;;;25.22;100.00;100900.63;4846249;29;20034;-76
2021/06/27 05:12:59;;;;;;;7.97;3.33;;;;;;;25.18;100.00;100903.66;4832240;29;20460;-76
2021/06/27 05:15:45;;;;;;;15.77;3.60;;;;;;;25.51;100.00;100904.69;4846679;29;20034;-76
2021/06/27 05:18:31;;;;;;;11.05;3.58;;;;;;;25.55;100.00;100910.69;4847831;29;20049;-76
2021/06/27 05:21:16;;;;;;;12.68;2.70;;;;;;;25.63;100.00;100925.22;4832119;29;20551;-76
2021/06/27 05:24:02;;;;;;;7.68;3.42;;;;;;;25.60;100.00;100927.28;4833997;29;20129;-76
2021/06/27 05:26:48;;;;;;;8.60;3.25;;;;;;;25.13;100.00;100929.97;4847879;29;20098;-76
2021/06/27 05:29:34;;;;;;;9.38;3.15;;;;;;;25.62;100.00;100936.94;4846308;29;20030;-76
2021/06/27 05:32:20;;;;;;;9.50;3.20;;;;;;;25.53;100.00;100947.50;4845744;29;20049;-76
2021/06/27 05:35:06;;;;;;;11.80;3.83;;;;;;;24.46;100.00;100942.00;4847631;29;20041;-76
2021/06/27 05:37:52;;;;;;;12.60;3.72;;;;;;;25.07;100.00;100927.75;4845537;29;20041;-75
2021/06/27 05:40:39;;;;;;;9.52;3.65;;;;;;;24.75;100.00;100934.59;4847264;29;20018;-75
2021/06/27 05:43:25;;;;;;;6.53;3.25;;;;;;;24.89;100.00;100939.81;4846919;29;20080;-75
2021/06/27 05:46:10;;;;;;;12.20;4.00;;;;;;;24.66;100.00;100951.31;4845783;29;20527;-75
2021/06/27 05:48:56;;;;;;;12.15;3.40;;;;;;;24.92;100.00;100943.16;4845369;29;20021;-75
2021/06/27 05:51:42;;;;;;;9.32;3.58;;;;;;;25.25;100.00;100946.00;4846080;29;20038;-75
2021/06/27 05:54:28;;;;;;;11.27;3.78;;;;;;;25.01;100.00;100946.94;4845228;29;20056;-75
2021/06/27 05:57:14;;;;;;;7.50;3.45;;;;;;;25.33;100.00;100953.50;4845382;29;20030;-74
2021/06/27 05:59:59;;;;;;;12.20;3.35;;;;;;;25.20;100.00;100950.00;4846672;29;20033;-74
2021/06/27 06:02:45;;;;;;;15.48;3.25;;;;;;;25.67;100.00;100952.66;4833599;29;20030;-75
2021/06/27 06:05:31;;;;;;;9.10;3.42;;;;;;;25.81;100.00;100949.81;4846763;29;20120;-75
2021/06/27 06:08:16;;;;;;;8.55;3.30;;;;;;;25.78;100.00;100950.03;4846537;29;20065;-75
2021/06/27 06:11:03;;;;;;;9.88;3.47;;;;;;;26.05;100.00;100956.00;4846912;29;20045;-75
2021/06/27 06:13:48;;;;;;;8.18;3.40;;;;;;;26.21;100.00;100951.16;4844734;29;20455;-75
2021/06/27 06:16:34;;;;;;;11.00;3.17;;;;;;;26.19;100.00;100953.94;4847100;29;20037;-75
2021/06/27 06:19:20;;;;;;;11.70;2.92;;;;;;;26.28;100.00;100955.06;4844794;29;20056;-75
2021/06/27 06:22:06;;;;;;;11.75;3.70;;;;;;;26.44;100.00;100951.03;4845056;29;20041;-75
2021/06/27 06:24:52;;;;;;;8.95;2.88;;;;;;;26.06;100.00;100952.34;4844410;29;20464;-76
2021/06/27 06:27:38;;;;;;;8.27;3.08;;;;;;;26.65;100.00;100953.91;4846441;29;20036;-76
2021/06/27 06:30:24;;;;;;;11.65;3.28;;;;;;;26.59;100.00;100957.06;4831383;29;20098;-76
2021/06/27 06:33:11;;;;;;;12.50;3.10;;;;;;;26.32;100.00;100962.75;4843831;29;20026;-75
2021/06/27 06:35:56;;;;;;;6.10;2.90;;;;;;;26.60;100.00;100956.09;4833038;29;20053;-75
2021/06/27 06:38:43;;;;;;;7.95;2.70;;;;;;;26.48;100.00;100957.03;4846799;29;20030;-76
2021/06/27 06:41:29;;;;;;;17.77;3.28;;;;;;;26.37;100.00;100965.09;4831354;29;20076;-76
2021/06/27 06:44:14;;;;;;;9.05;2.85;;;;;;;26.12;100.00;100963.44;4832766;29;20433;-76
2021/06/27 06:47:00;;;;;;;11.63;3.15;;;;;;;26.42;100.00;100966.44;4845114;29;20037;-76
2021/06/27 06:49:46;;;;;;;8.60;2.92;;;;;;;26.81;100.00;100968.66;4845989;29;20515;-75
2021/06/27 06:52:32;;;;;;;9.88;3.22;;;;;;;26.49;100.00;100961.44;4846090;29;20041;-76
2021/06/27 06:55:20;;;;;;;6.60;2.88;;;;;;;26.71;100.00;100966.81;4844243;29;20117;-75
2021/06/27 06:58:06;;;;;;;9.15;2.75;;;;;;;26.61;100.00;100965.88;4832862;29;20150;-75
2021/06/27 07:00:52;;;;;;;10.43;2.95;;;;;;;26.67;100.00;100960.84;4845933;29;20026;-76
2021/06/27 07:03:38;;;;;;;12.70;2.88;;;;;;;26.13;100.00;100962.50;4844325;29;20380;-76
2021/06/27 07:06:24;;;;;;;10.63;3.47;;;;;;;27.06;100.00;100965.72;4844423;29;20045;-76
2021/06/27 07:09:10;;;;;;;10.95;3.95;;;;;;;26.50;100.00;100971.19;4844894;29;20603;-76
2021/06/27 07:11:56;;;;;;;14.55;4.10;;;;;;;26.59;100.00;100962.44;4844082;29;20044;-76
2021/06/27 07:14:43;;;;;;;10.57;3.75;;;;;;;27.10;100.00;100960.91;4844415;29;20116;-77
2021/06/27 07:17:30;;;;;;;10.43;4.25;;;;;;;27.65;100.00;100959.91;4830728;29;20034;-76
2021/06/27 07:20:16;;;;;;;12.00;4.10;;;;;;;27.99;100.00;100959.63;4845716;29;20423;-76
2021/06/27 07:23:02;;;;;;;17.40;4.88;;;;;;;27.89;100.00;100953.34;4844689;29;20166;-76
2021/06/27 07:25:48;;;;;;;10.23;4.28;;;;;;;28.07;100.00;100958.97;4845383;29;20098;-76
2021/06/27 07:28:34;;;;;;;14.23;4.13;;;;;;;28.21;100.00;100964.88;4845816;29;20113;-76
2021/06/27 07:31:19;;;;;;;7.88;3.80;;;;;;;28.52;100.00;100963.13;4843408;29;20044;-76
2021/06/27 07:34:05;;;;;;;10.82;4.30;;;;;;;28.19;100.00;100961.47;4845321;29;20487;-76
2021/06/27 07:36:51;;;;;;;13.13;4.22;;;;;;;27.99;100.00;100962.31;4844876;29;20376;-76
2021/06/27 07:39:37;;;;;;;16.15;3.88;;;;;;;27.96;100.00;100967.97;4845751;29;20467;-75
2021/06/27 07:42:23;;;;;;;11.38;4.10;;;;;;;28.19;100.00;100977.63;4845436;29;20038;-75
2021/06/27 07:45:09;;;;;;;9.60;4.13;;;;;;;28.94;100.00;100972.78;4843836;29;20478;-75
2021/06/27 07:47:55;;;;;;;8.93;3.88;;;;;;;28.55;100.00;100977.16;4845346;29;20129;-75
2021/06/27 07:50:41;;;;;;;8.00;3.53;;;;;;;28.79;100.00;100975.00;4845512;29;20094;-76
2021/06/27 07:53:27;;;;;;;9.10;3.80;;;;;;;28.96;100.00;100963.53;4845212;29;20034;-75
2021/06/27 07:56:13;;;;;;;7.55;3.60;;;;;;;29.38;100.00;100958.84;4845358;29;20036;-76
2021/06/27 07:58:58;;;;;;;10.77;3.90;;;;;;;28.76;100.00;100956.38;4831768;29;20026;-75
2021/06/27 08:01:44;;;;;;;13.10;4.35;;;;;;;28.67;100.00;100957.22;4844391;29;20067;-76
2021/06/27 08:04:30;;;;;;;12.70;4.13;;;;;;;28.81;100.00;100964.06;4830626;29;20131;-75
2021/06/27 08:07:16;;;;;;;12.45;4.07;;;;;;;29.67;100.00;100960.59;4829912;29;20056;-75
2021/06/27 08:10:03;;;;;;;11.95;3.83;;;;;;;29.34;100.00;100960.97;4843706;29;20041;-75
2021/06/27 08:12:49;;;;;;;13.70;4.43;;;;;;;29.93;100.00;100964.41;4843246;29;20038;-75
2021/06/27 08:15:35;;;;;;;12.20;4.22;;;;;;;29.88;100.00;100966.69;4843874;29;20034;-75
2021/06/27 08:18:21;;;;;;;10.63;3.85;;;;;;;30.29;100.00;100971.75;4844158;29;20026;-75
2021/06/27 08:21:06;;;;;;;10.52;4.22;;;;;;;30.39;100.00;100972.59;4830482;29;20033;-75
2021/06/27 08:23:52;;;;;;;9.05;3.85;;;;;;;31.06;100.00;100969.63;4844582;29;20096;-75
2021/06/27 08:26:38;;;;;;;11.23;3.83;;;;;;;30.91;100.00;100971.97;4845001;29;20034;-75
2021/06/27 08:29:24;;;;;;;9.32;3.75;;;;;;;30.83;100.00;100974.56;4843826;29;20040;-75
2021/06/27 08:32:10;;;;;;;9.77;4.20;;;;;;;30.70;100.00;100970.53;4842990;29;20030;-75
2021/06/27 08:34:56;;;;;;;7.22;3.80;;;;;;;30.71;100.00;100975.78;4843956;29;20110;-75
2021/06/27 08:37:43;;;;;;;12.73;4.13;;;;;;;30.72;100.00;100973.91;4842964;29;20042;-75
2021/06/27 08:40:29;;;;;;;10.07;4.47;;;;;;;30.53;100.00;100974.81;4845003;29;20057;-75
2021/06/27 08:43:14;;;;;;;8.63;4.00;;;;;;;31.01;100.00;100978.19;4844354;29;20364;-75
2021/06/27 08:46:07;;;;;;;13.63;4.35;;;;;;;31.32;100.00;100976.03;4844839;29;20042;-75
2021/06/27 08:48:54;;;;;;;13.60;4.90;;;;;;;30.86;100.00;100979.69;4845783;29;20048;-75
2021/06/27 08:51:40;;;;;;;11.23;4.07;;;;;;;30.38;100.00;100978.16;4846485;29;20363;-75
2021/06/27 08:54:28;;;;;;;11.32;3.95;;;;;;;30.89;100.00;100971.28;4844914;29;20112;-75
2021/06/27 08:57:15;;;;;;;7.57;3.53;;;;;;;30.90;100.00;100967.56;4845370;29;20034;-75
2021/06/27 09:00:02;;;;;;;8.52;3.83;;;;;;;31.05;100.00;100971.47;4847185;29;20029;-75
2021/06/27 09:02:47;;;;;;;13.48;4.30;;;;;;;31.18;100.00;100971.13;4834227;29;20037;-76
2021/06/27 09:05:37;;;;;;;12.45;4.00;;;;;;;30.76;100.00;100965.38;4846437;29;20045;-76
2021/06/27 09:08:23;;;;;;;12.32;4.60;;;;;;;31.19;100.00;100965.53;4847946;29;20037;-75
2021/06/27 09:11:13;;;;;;;10.68;4.07;;;;;;;31.61;100.00;100971.25;4844971;29;20053;-75
2021/06/27 09:13:59;;;;;;;10.60;4.10;;;;;;;31.55;100.00;100961.06;4847172;29;20049;-74
2021/06/27 09:16:44;;;;;;;13.15;4.07;;;;;;;30.67;100.00;100968.94;4846598;29;20036;-75
2021/06/27 09:19:30;;;;;;;10.77;4.10;;;;;;;31.32;100.00;100965.22;4845803;29;20072;-75
2021/06/27 09:22:16;;;;;;;11.35;4.18;;;;;;;31.63;100.00;100965.69;4845666;29;20194;-75
2021/06/27 09:25:23;;;;;;;13.63;4.10;;;;;;;31.64;100.00;100959.25;4846984;29;20128;-75
2021/06/27 09:28:13;;;;;;;13.40;4.65;;;;;;;31.85;100.00;100949.00;4847630;29;20041;-76
2021/06/27 09:30:58;;;;;;;11.20;4.22;;;;;;;32.44;100.00;100962.66;4847261;29;20057;-75
2021/06/27 09:33:44;;;;;;;10.68;4.30;;;;;;;31.88;100.00;100962.19;4845725;29;20030;-75
2021/06/27 09:36:30;;;;;;;10.38;4.50;;;;;;;31.49;100.00;100961.66;4847243;29;20472;-75
2021/06/27 09:39:17;;;;;;;8.77;4.15;;;;;;;31.76;100.00;100950.72;4847677;29;20098;-75
2021/06/27 09:42:04;;;;;;;11.25;4.93;;;;;;;31.60;100.00;100960.56;4847428;29;20034;-75
2021/06/27 09:45:09;;;;;;;15.18;4.93;;;;;;;31.47;100.00;100949.28;4847197;29;20029;-75
2021/06/27 09:48:03;;;;;;;11.32;4.68;;;;;;;31.28;100.00;100943.00;4847211;29;20030;-75
2021/06/27 09:50:50;;;;;;;11.25;4.50;;;;;;;31.49;100.00;100942.69;4846338;29;20049;-75
2021/06/27 09:53:45;;;;;;;10.55;4.80;;;;;;;31.59;100.00;100937.19;4831369;29;20025;-75
2021/06/27 09:56:37;;;;;;;15.38;4.95;;;;;;;32.25;100.00;100932.97;4846351;29;20044;-75
2021/06/27 09:59:42;;;;;;;14.20;4.65;;;;;;;31.15;100.00;100937.06;4843888;29;20026;-75
2021/06/27 10:02:28;;;;;;;12.80;5.15;;;;;;;31.26;100.00;100934.16;4844272;29;20058;-75
2021/06/27 10:05:23;;;;;;;14.68;5.07;;;;;;;31.43;100.00;100925.19;4845218;29;20425;-75
2021/06/27 10:08:26;;;;;;;11.85;4.90;;;;;;;31.26;100.00;100931.47;4832602;29;20142;-75
2021/06/27 10:11:20;;;;;;;13.95;4.82;;;;;;;31.55;100.00;100936.66;4845991;29;20052;-75
2021/06/27 10:14:10;;;;;;;12.13;4.45;;;;;;;31.27;100.00;100921.50;4846882;29;20034;-75
2021/06/27 10:16:58;;;;;;;16.52;5.07;;;;;;;31.03;100.00;100923.91;4846889;29;20470;-75
2021/06/27 10:19:45;;;;;;;15.25;4.82;;;;;;;31.83;100.00;100926.59;4845017;29;20068;-75
2021/06/27 10:22:32;;;;;;;14.73;4.90;;;;;;;31.89;100.00;100929.53;4846542;29;20045;-75
2021/06/27 10:25:18;;;;;;;11.77;4.68;;;;;;;31.04;100.00;100934.59;4845558;29;20122;-75
2021/06/27 10:28:05;;;;;;;9.88;4.88;;;;;;;32.39;100.00;100941.44;4831446;29;20345;-76
2021/06/27 10:30:50;;;;;;;10.43;4.57;;;;;;;32.74;99.44;100935.84;4846326;29;20041;-75
2021/06/27 10:33:37;;;;;;;12.18;4.90;;;;;;;32.49;100.00;100938.59;4846245;29;20033;-76
2021/06/27 10:36:36;;;;;;;12.57;5.13;;;;;;;32.81;100.00;100930.63;4846096;29;20045;-76
2021/06/27 10:39:24;;;;;;;10.05;4.50;;;;;;;32.23;100.00;100944.03;4846163;29;20393;-76
2021/06/27 10:42:10;;;;;;;14.15;4.70;;;;;;;32.28;100.00;100951.66;4844732;29;20081;-76
2021/06/27 10:44:59;;;;;;;15.13;4.85;;;;;;;32.39;100.00;100946.88;4846092;29;20113;-77
2021/06/27 10:47:45;;;;;;;8.57;4.32;;;;;;;31.78;100.00;100937.06;4844714;29;20034;-76
2021/06/27 10:50:52;;;;;;;12.05;4.68;;;;;;;31.76;100.00;100936.31;4846012;29;20034;-76
2021/06/27 10:54:16;;;;;;;12.25;5.07;;;;;;;31.70;100.00;100935.09;4843039;29;20208;-76
2021/06/27 10:57:06;;;;;;;11.90;5.07;;;;;;;31.86;100.00;100929.84;4825725;29;20046;-76
2021/06/27 10:59:52;;;;;;;15.80;4.85;;;;;;;32.51;100.00;100933.88;4843666;29;20034;-76
2021/06/27 11:02:39;;;;;;;8.55;4.18;;;;;;;32.63;100.00;100933.44;4843863;29;20018;-76
2021/06/27 11:05:28;;;;;;;9.20;4.30;;;;;;;32.66;100.00;100921.41;4830229;29;20463;-76
2021/06/27 11:08:27;;;;;;;11.68;4.30;;;;;;;33.12;99.17;100923.59;4845135;29;20025;-76
2021/06/27 11:11:17;;;;;;;13.80;5.07;;;;;;;32.14;100.00;100920.53;4844566;29;20536;-76
2021/06/27 11:14:13;;;;;;;11.70;4.65;;;;;;;32.56;100.00;100923.38;4830772;29;20061;-76
2021/06/27 11:17:01;;;;;;;11.55;5.00;;;;;;;32.70;100.00;100920.06;4844637;29;20053;-76
2021/06/27 11:20:04;;;;;;;7.72;4.40;;;;;;;32.47;100.00;100922.50;4843434;29;20030;-76
2021/06/27 11:22:58;;;;;;;13.00;4.50;;;;;;;32.93;100.00;100913.03;4844056;29;20449;-76
2021/06/27 11:25:46;;;;;;;12.13;4.63;;;;;;;32.61;100.00;100921.00;4845510;29;20053;-76
2021/06/27 11:28:35;;;;;;;11.02;4.53;;;;;;;32.91;99.13;100910.47;4843550;29;20034;-76
2021/06/27 11:31:27;;;;;;;9.98;4.50;;;;;;;33.17;98.68;100918.53;4845265;29;20098;-77
2021/06/27 11:34:24;;;;;;;9.57;4.25;;;;;;;33.28;97.92;100907.34;4844495;29;20086;-77
2021/06/27 11:37:16;;;;;;;11.95;4.55;;;;;;;33.18;95.11;100909.38;4845591;29;20379;-77
2021/06/27 11:40:03;;;;;;;13.15;4.20;;;;;;;33.23;96.25;100896.13;4845824;29;20433;-76
2021/06/27 11:42:50;;;;;;;7.85;3.97;;;;;;;33.84;92.92;100907.44;4829961;29;20094;-76
2021/06/27 11:45:42;;;;;;;12.80;4.55;;;;;;;33.33;94.53;100905.84;4844683;29;20040;-76
2021/06/27 11:48:27;;;;;;;10.90;4.00;;;;;;;33.32;94.75;100898.72;4843681;29;20045;-76
2021/06/27 11:51:13;;;;;;;11.73;4.70;;;;;;;33.05;97.87;100898.97;4845790;29;20102;-76
2021/06/27 11:53:59;;;;;;;10.30;4.20;;;;;;;33.04;99.26;100894.56;4845049;29;20065;-76
2021/06/27 11:56:56;;;;;;;12.57;4.50;;;;;;;33.34;99.07;100896.69;4845383;29;20046;-76
2021/06/27 11:59:53;;;;;;;14.68;4.57;;;;;;;33.64;95.49;100887.88;4845875;29;20040;-75
2021/06/27 12:02:39;;;;;;;10.15;4.68;;;;;;;33.63;94.72;100897.03;4843858;29;20371;-76
2021/06/27 12:05:25;;;;;;;13.85;4.50;;;;;;;33.19;99.23;100900.22;4844589;29;20030;-76
2021/06/27 12:08:11;;;;;;;11.60;4.28;;;;;;;32.95;96.61;100889.28;4843694;29;20037;-76
2021/06/27 12:10:59;;;;;;;13.55;4.45;;;;;;;32.63;97.35;100891.84;4845562;29;20102;-76
2021/06/27 12:13:50;;;;;;;8.80;4.15;;;;;;;32.83;98.40;100890.59;4844986;29;20041;-76
2021/06/27 12:16:35;;;;;;;13.60;4.55;;;;;;;32.86;100.00;100891.13;4845559;29;20044;-76
2021/06/27 12:19:21;;;;;;;14.30;4.63;;;;;;;32.47;100.00;100892.66;4843067;29;20034;-76
2021/06/27 12:22:09;;;;;;;9.00;4.28;;;;;;;32.88;100.00;100894.53;4843774;29;20527;-76
2021/06/27 12:25:03;;;;;;;12.77;4.53;;;;;;;33.31;98.00;100898.88;4848431;29;20054;-76
2021/06/27 12:27:50;;;;;;;11.27;4.40;;;;;;;33.45;94.95;100896.38;4846548;29;20061;-75
2021/06/27 12:30:44;;;;;;;10.88;4.50;;;;;;;33.24;97.44;100900.53;4846777;29;20038;-77
2021/06/27 12:33:36;;;;;;;10.02;4.15;;;;;;;33.70;95.68;100902.63;4834911;29;20085;-76
2021/06/27 12:36:34;;;;;;;14.85;4.43;;;;;;;33.14;99.45;100900.69;4848424;29;20044;-76
2021/06/27 12:39:23;;;;;;;12.85;4.25;;;;;;;33.29;99.12;100901.75;4846474;29;20034;-75
2021/06/27 12:42:15;;;;;;;9.50;4.30;;;;;;;32.93;95.61;100902.16;4847372;29;20107;-76
2021/06/27 12:45:21;;;;;;;10.73;4.05;;;;;;;33.13;97.83;100904.44;4848288;29;20049;-75
2021/06/27 12:48:11;;;;;;;12.82;4.70;;;;;;;33.29;99.73;100900.88;4832554;29;20030;-75